Main page
METAR-TAF:

METAR-TAF

Airports :

Ruben Berta International Airport

Uruguaiana, Rio Grande do Sul, Brazil

latitude: 29-47S, longitude: 057-02W, elevation: 74 m

Current weather observation

The report was made 13 minutes ago, at 11:00 UTC
Wind 5 kt from the South/Southwest
Temperature 22°C
Humidity 94%
Pressure 1014 hPa
Visibility 10 km or more
Few clouds at a height of 4000 ft, Cumulonimbus.
Overcast at a height of 10000 ft
thunderstorm, light rain

METAR: SBUG 121100Z 20005KT 9999 -TSRA FEW040CB OVC100 22/21 Q1014

Time: 09:13 (11:13 UTC)

Forecast

The report was made 10 hours and 43 minutes ago, at 00:30 UTC
Forecast valid from 12 at 06 UTC to 12 at 18 UTC
Wind 3 kt from variable directions
Visibility 10 km or more
no clouds below 1500 m and no cumulonimbus

TAF: SBUG 120030Z 1206/1218 VRB03KT CAVOK TN25/1208Z TX33/1217Z RMK PEB

Weather observations and forecasts of more than 4000 airports (METAR and TAF reports).

The available stations are represented by yellow and red dots on the map.

Hover mouse over dot to see the name of the station.

Then click to see weather observations and forecasts.

To change the map : click on the green buttons with a black cross to zoom in, on the green button with a dash to zoom out, or on the green arrows for adjacent maps.


METAR-TAF: